sensor_id;sensor_type;location;lat;lon;timestamp;P1;durP1;ratioP1;P2;durP2;ratioP2
70953;SDS011;58618;47.490;8.736;2023-04-15T00:01:43;1.38;;;0.80;;
70953;SDS011;58618;47.490;8.736;2023-04-15T00:04:30;0.82;;;0.82;;
70953;SDS011;58618;47.490;8.736;2023-04-15T00:07:19;1.80;;;0.80;;
70953;SDS011;58618;47.490;8.736;2023-04-15T00:10:07;0.73;;;0.68;;
70953;SDS011;58618;47.490;8.736;2023-04-15T00:12:54;0.90;;;0.70;;
70953;SDS011;58618;47.490;8.736;2023-04-15T00:15:42;2.88;;;0.90;;
70953;SDS011;58618;47.490;8.736;2023-04-15T00:18:29;1.33;;;0.90;;
70953;SDS011;58618;47.490;8.736;2023-04-15T00:21:16;1.33;;;0.80;;
70953;SDS011;58618;47.490;8.736;2023-04-15T00:24:05;1.63;;;1.05;;
70953;SDS011;58618;47.490;8.736;2023-04-15T00:26:53;0.60;;;0.60;;
70953;SDS011;58618;47.490;8.736;2023-04-15T00:29:40;0.88;;;0.65;;
70953;SDS011;58618;47.490;8.736;2023-04-15T00:32:28;1.60;;;0.68;;
70953;SDS011;58618;47.490;8.736;2023-04-15T00:35:15;0.88;;;0.60;;
70953;SDS011;58618;47.490;8.736;2023-04-15T00:38:03;1.33;;;0.80;;
70953;SDS011;58618;47.490;8.736;2023-04-15T00:40:53;0.70;;;0.67;;
70953;SDS011;58618;47.490;8.736;2023-04-15T00:43:41;4.63;;;0.80;;
70953;SDS011;58618;47.490;8.736;2023-04-15T00:46:29;1.42;;;0.95;;
70953;SDS011;58618;47.490;8.736;2023-04-15T00:49:17;1.05;;;0.68;;
70953;SDS011;58618;47.490;8.736;2023-04-15T00:52:04;0.60;;;0.60;;
70953;SDS011;58618;47.490;8.736;2023-04-15T00:54:52;1.80;;;0.67;;
70953;SDS011;58618;47.490;8.736;2023-04-15T00:57:40;0.95;;;0.80;;
70953;SDS011;58618;47.490;8.736;2023-04-15T01:00:28;1.85;;;0.80;;
70953;SDS011;58618;47.490;8.736;2023-04-15T01:03:16;1.83;;;0.80;;
70953;SDS011;58618;47.490;8.736;2023-04-15T01:06:03;0.80;;;0.60;;
70953;SDS011;58618;47.490;8.736;2023-04-15T01:08:51;0.97;;;0.87;;
70953;SDS011;58618;47.490;8.736;2023-04-15T01:11:38;6.82;;;0.75;;
70953;SDS011;58618;47.490;8.736;2023-04-15T01:14:27;1.20;;;0.80;;
70953;SDS011;58618;47.490;8.736;2023-04-15T01:17:15;1.73;;;1.00;;
70953;SDS011;58618;47.490;8.736;2023-04-15T01:20:04;0.98;;;0.88;;
70953;SDS011;58618;47.490;8.736;2023-04-15T01:22:54;0.60;;;0.60;;
70953;SDS011;58618;47.490;8.736;2023-04-15T01:25:43;0.60;;;0.50;;
70953;SDS011;58618;47.490;8.736;2023-04-15T01:28:32;0.70;;;0.63;;
70953;SDS011;58618;47.490;8.736;2023-04-15T01:31:19;1.30;;;1.10;;
70953;SDS011;58618;47.490;8.736;2023-04-15T01:34:06;0.85;;;0.57;;
70953;SDS011;58618;47.490;8.736;2023-04-15T01:36:54;2.93;;;0.83;;
70953;SDS011;58618;47.490;8.736;2023-04-15T01:39:41;0.50;;;0.50;;
70953;SDS011;58618;47.490;8.736;2023-04-15T01:42:31;0.80;;;0.80;;
70953;SDS011;58618;47.490;8.736;2023-04-15T01:45:18;0.80;;;0.80;;
70953;SDS011;58618;47.490;8.736;2023-04-15T01:48:05;3.65;;;0.73;;
70953;SDS011;58618;47.490;8.736;2023-04-15T01:50:54;1.57;;;0.70;;
70953;SDS011;58618;47.490;8.736;2023-04-15T01:53:43;0.55;;;0.55;;
70953;SDS011;58618;47.490;8.736;2023-04-15T01:56:30;0.60;;;0.60;;
70953;SDS011;58618;47.490;8.736;2023-04-15T01:59:20;0.60;;;0.50;;
70953;SDS011;58618;47.490;8.736;2023-04-15T02:02:07;1.33;;;0.77;;
70953;SDS011;58618;47.490;8.736;2023-04-15T02:04:55;1.67;;;0.80;;
70953;SDS011;58618;47.490;8.736;2023-04-15T02:07:42;1.00;;;0.82;;
70953;SDS011;58618;47.490;8.736;2023-04-15T02:10:30;1.50;;;0.70;;
70953;SDS011;58618;47.490;8.736;2023-04-15T02:13:18;0.57;;;0.57;;
70953;SDS011;58618;47.490;8.736;2023-04-15T02:16:15;1.05;;;0.73;;
70953;SDS011;58618;47.490;8.736;2023-04-15T02:19:03;0.87;;;0.67;;
70953;SDS011;58618;47.490;8.736;2023-04-15T02:21:50;2.00;;;0.75;;
70953;SDS011;58618;47.490;8.736;2023-04-15T02:24:37;0.80;;;0.70;;
70953;SDS011;58618;47.490;8.736;2023-04-15T02:27:24;0.77;;;0.63;;
70953;SDS011;58618;47.490;8.736;2023-04-15T02:30:13;0.70;;;0.70;;
70953;SDS011;58618;47.490;8.736;2023-04-15T02:33:02;0.80;;;0.63;;
70953;SDS011;58618;47.490;8.736;2023-04-15T02:35:49;0.73;;;0.60;;
70953;SDS011;58618;47.490;8.736;2023-04-15T02:38:38;1.77;;;1.05;;
70953;SDS011;58618;47.490;8.736;2023-04-15T02:41:27;0.82;;;0.75;;
70953;SDS011;58618;47.490;8.736;2023-04-15T02:44:15;1.00;;;0.60;;
70953;SDS011;58618;47.490;8.736;2023-04-15T02:47:05;0.57;;;0.50;;
70953;SDS011;58618;47.490;8.736;2023-04-15T02:49:53;0.75;;;0.70;;
70953;SDS011;58618;47.490;8.736;2023-04-15T02:52:41;0.80;;;0.70;;
70953;SDS011;58618;47.490;8.736;2023-04-15T02:55:29;2.45;;;0.98;;
70953;SDS011;58618;47.490;8.736;2023-04-15T02:58:16;1.85;;;0.80;;
70953;SDS011;58618;47.490;8.736;2023-04-15T03:01:04;1.67;;;1.23;;
70953;SDS011;58618;47.490;8.736;2023-04-15T03:03:52;1.20;;;0.70;;
70953;SDS011;58618;47.490;8.736;2023-04-15T03:06:41;1.38;;;0.90;;
70953;SDS011;58618;47.490;8.736;2023-04-15T03:09:28;1.75;;;0.73;;
70953;SDS011;58618;47.490;8.736;2023-04-15T03:12:15;0.90;;;0.60;;
70953;SDS011;58618;47.490;8.736;2023-04-15T03:15:03;1.27;;;0.77;;
70953;SDS011;58618;47.490;8.736;2023-04-15T03:17:51;1.17;;;0.70;;
70953;SDS011;58618;47.490;8.736;2023-04-15T03:20:38;0.75;;;0.60;;
70953;SDS011;58618;47.490;8.736;2023-04-15T03:23:27;1.33;;;0.60;;
70953;SDS011;58618;47.490;8.736;2023-04-15T03:26:23;2.97;;;0.85;;
70953;SDS011;58618;47.490;8.736;2023-04-15T03:29:12;0.90;;;0.60;;
70953;SDS011;58618;47.490;8.736;2023-04-15T03:31:59;1.20;;;0.90;;
70953;SDS011;58618;47.490;8.736;2023-04-15T03:34:46;1.35;;;1.00;;
70953;SDS011;58618;47.490;8.736;2023-04-15T03:37:34;0.63;;;0.52;;
70953;SDS011;58618;47.490;8.736;2023-04-15T03:40:23;1.67;;;0.82;;
70953;SDS011;58618;47.490;8.736;2023-04-15T03:43:10;1.20;;;0.60;;
70953;SDS011;58618;47.490;8.736;2023-04-15T03:45:57;0.77;;;0.70;;
70953;SDS011;58618;47.490;8.736;2023-04-15T03:48:45;1.35;;;0.90;;
70953;SDS011;58618;47.490;8.736;2023-04-15T03:51:32;2.55;;;0.80;;
70953;SDS011;58618;47.490;8.736;2023-04-15T03:54:20;1.25;;;0.70;;
70953;SDS011;58618;47.490;8.736;2023-04-15T03:57:08;0.80;;;0.70;;
70953;SDS011;58618;47.490;8.736;2023-04-15T03:59:56;0.80;;;0.68;;
70953;SDS011;58618;47.490;8.736;2023-04-15T04:02:43;2.67;;;1.00;;
70953;SDS011;58618;47.490;8.736;2023-04-15T04:05:31;0.93;;;0.60;;
70953;SDS011;58618;47.490;8.736;2023-04-15T04:08:21;1.48;;;0.80;;
70953;SDS011;58618;47.490;8.736;2023-04-15T04:11:09;2.67;;;0.80;;
70953;SDS011;58618;47.490;8.736;2023-04-15T04:13:57;1.58;;;0.70;;
70953;SDS011;58618;47.490;8.736;2023-04-15T04:16:45;3.00;;;0.70;;
70953;SDS011;58618;47.490;8.736;2023-04-15T04:19:32;1.13;;;0.70;;
70953;SDS011;58618;47.490;8.736;2023-04-15T04:22:21;1.38;;;1.00;;
70953;SDS011;58618;47.490;8.736;2023-04-15T04:25:09;1.17;;;0.70;;
70953;SDS011;58618;47.490;8.736;2023-04-15T04:27:56;1.65;;;0.80;;
70953;SDS011;58618;47.490;8.736;2023-04-15T04:30:45;1.35;;;0.70;;
70953;SDS011;58618;47.490;8.736;2023-04-15T04:33:32;1.00;;;0.60;;
70953;SDS011;58618;47.490;8.736;2023-04-15T04:36:20;1.20;;;0.80;;
70953;SDS011;58618;47.490;8.736;2023-04-15T04:39:07;1.70;;;1.13;;
70953;SDS011;58618;47.490;8.736;2023-04-15T04:41:54;0.90;;;0.80;;
70953;SDS011;58618;47.490;8.736;2023-04-15T04:44:42;0.90;;;0.60;;
70953;SDS011;58618;47.490;8.736;2023-04-15T04:47:30;0.80;;;0.57;;
70953;SDS011;58618;47.490;8.736;2023-04-15T04:50:18;1.77;;;1.38;;
70953;SDS011;58618;47.490;8.736;2023-04-15T04:53:05;0.57;;;0.50;;
70953;SDS011;58618;47.490;8.736;2023-04-15T04:55:52;1.60;;;0.90;;
70953;SDS011;58618;47.490;8.736;2023-04-15T04:58:40;1.30;;;0.90;;
70953;SDS011;58618;47.490;8.736;2023-04-15T05:01:27;1.00;;;0.68;;
70953;SDS011;58618;47.490;8.736;2023-04-15T05:04:16;1.15;;;0.80;;
70953;SDS011;58618;47.490;8.736;2023-04-15T05:07:03;1.50;;;0.80;;
70953;SDS011;58618;47.490;8.736;2023-04-15T05:09:51;1.25;;;0.75;;
70953;SDS011;58618;47.490;8.736;2023-04-15T05:12:39;1.45;;;0.60;;
70953;SDS011;58618;47.490;8.736;2023-04-15T05:15:26;1.08;;;0.73;;
70953;SDS011;58618;47.490;8.736;2023-04-15T05:18:21;0.75;;;0.70;;
70953;SDS011;58618;47.490;8.736;2023-04-15T05:24:16;0.70;;;0.52;;
70953;SDS011;58618;47.490;8.736;2023-04-15T05:27:03;4.03;;;0.80;;
70953;SDS011;58618;47.490;8.736;2023-04-15T05:29:50;1.63;;;0.90;;
70953;SDS011;58618;47.490;8.736;2023-04-15T05:32:38;1.13;;;0.80;;
70953;SDS011;58618;47.490;8.736;2023-04-15T05:35:25;0.97;;;0.60;;
70953;SDS011;58618;47.490;8.736;2023-04-15T05:38:14;1.55;;;0.60;;
70953;SDS011;58618;47.490;8.736;2023-04-15T05:41:01;1.98;;;0.88;;
70953;SDS011;58618;47.490;8.736;2023-04-15T05:43:50;0.90;;;0.70;;
70953;SDS011;58618;47.490;8.736;2023-04-15T05:46:37;1.15;;;0.80;;
70953;SDS011;58618;47.490;8.736;2023-04-15T05:49:24;1.30;;;0.87;;
70953;SDS011;58618;47.490;8.736;2023-04-15T05:52:12;1.15;;;0.65;;
70953;SDS011;58618;47.490;8.736;2023-04-15T05:55:01;1.42;;;0.90;;
70953;SDS011;58618;47.490;8.736;2023-04-15T05:57:48;3.20;;;0.85;;
70953;SDS011;58618;47.490;8.736;2023-04-15T06:00:35;1.25;;;0.80;;
70953;SDS011;58618;47.490;8.736;2023-04-15T06:03:23;1.00;;;0.80;;
70953;SDS011;58618;47.490;8.736;2023-04-15T06:06:10;2.00;;;0.98;;
70953;SDS011;58618;47.490;8.736;2023-04-15T06:08:58;1.05;;;0.80;;
70953;SDS011;58618;47.490;8.736;2023-04-15T06:11:47;1.15;;;0.70;;
70953;SDS011;58618;47.490;8.736;2023-04-15T06:14:34;0.80;;;0.75;;
70953;SDS011;58618;47.490;8.736;2023-04-15T06:17:21;1.00;;;0.80;;
70953;SDS011;58618;47.490;8.736;2023-04-15T06:20:09;1.38;;;0.95;;
70953;SDS011;58618;47.490;8.736;2023-04-15T06:22:57;3.35;;;1.23;;
70953;SDS011;58618;47.490;8.736;2023-04-15T06:25:45;1.75;;;1.00;;
70953;SDS011;58618;47.490;8.736;2023-04-15T06:28:34;1.15;;;0.90;;
70953;SDS011;58618;47.490;8.736;2023-04-15T06:31:21;1.10;;;0.80;;
70953;SDS011;58618;47.490;8.736;2023-04-15T06:34:08;0.80;;;0.70;;
70953;SDS011;58618;47.490;8.736;2023-04-15T06:36:56;1.45;;;1.08;;
70953;SDS011;58618;47.490;8.736;2023-04-15T06:39:43;2.25;;;1.05;;
70953;SDS011;58618;47.490;8.736;2023-04-15T06:42:30;2.42;;;1.20;;
70953;SDS011;58618;47.490;8.736;2023-04-15T06:45:20;2.30;;;1.10;;
70953;SDS011;58618;47.490;8.736;2023-04-15T06:48:07;3.63;;;1.20;;
70953;SDS011;58618;47.490;8.736;2023-04-15T06:50:54;2.08;;;1.40;;
70953;SDS011;58618;47.490;8.736;2023-04-15T06:53:43;1.50;;;1.20;;
70953;SDS011;58618;47.490;8.736;2023-04-15T06:56:30;1.70;;;1.10;;
70953;SDS011;58618;47.490;8.736;2023-04-15T06:59:17;1.50;;;1.03;;
70953;SDS011;58618;47.490;8.736;2023-04-15T07:02:06;1.90;;;1.40;;
70953;SDS011;58618;47.490;8.736;2023-04-15T07:04:57;2.63;;;1.42;;
70953;SDS011;58618;47.490;8.736;2023-04-15T07:07:45;4.18;;;1.38;;
70953;SDS011;58618;47.490;8.736;2023-04-15T07:10:32;1.58;;;1.10;;
70953;SDS011;58618;47.490;8.736;2023-04-15T07:13:20;1.80;;;1.40;;
70953;SDS011;58618;47.490;8.736;2023-04-15T07:16:07;2.08;;;1.50;;
70953;SDS011;58618;47.490;8.736;2023-04-15T07:18:56;2.78;;;1.30;;
70953;SDS011;58618;47.490;8.736;2023-04-15T07:21:43;1.20;;;0.82;;
70953;SDS011;58618;47.490;8.736;2023-04-15T07:24:30;3.88;;;1.38;;
70953;SDS011;58618;47.490;8.736;2023-04-15T07:27:17;1.60;;;1.13;;
70953;SDS011;58618;47.490;8.736;2023-04-15T07:30:06;1.95;;;1.42;;
70953;SDS011;58618;47.490;8.736;2023-04-15T07:32:54;2.38;;;1.45;;
70953;SDS011;58618;47.490;8.736;2023-04-15T07:35:42;1.63;;;1.00;;
70953;SDS011;58618;47.490;8.736;2023-04-15T07:38:30;1.63;;;1.25;;
70953;SDS011;58618;47.490;8.736;2023-04-15T07:41:18;2.83;;;1.60;;
70953;SDS011;58618;47.490;8.736;2023-04-15T07:44:05;3.17;;;1.50;;
70953;SDS011;58618;47.490;8.736;2023-04-15T07:46:53;1.77;;;1.27;;
70953;SDS011;58618;47.490;8.736;2023-04-15T07:49:40;2.42;;;1.45;;
70953;SDS011;58618;47.490;8.736;2023-04-15T07:52:30;3.80;;;1.65;;
70953;SDS011;58618;47.490;8.736;2023-04-15T07:55:23;1.90;;;1.30;;
70953;SDS011;58618;47.490;8.736;2023-04-15T07:58:11;3.63;;;1.45;;
70953;SDS011;58618;47.490;8.736;2023-04-15T08:00:58;2.22;;;1.38;;
70953;SDS011;58618;47.490;8.736;2023-04-15T08:03:46;3.83;;;1.17;;
70953;SDS011;58618;47.490;8.736;2023-04-15T08:06:34;2.92;;;1.60;;
70953;SDS011;58618;47.490;8.736;2023-04-15T08:09:22;3.33;;;1.53;;
70953;SDS011;58618;47.490;8.736;2023-04-15T08:12:10;2.67;;;1.67;;
70953;SDS011;58618;47.490;8.736;2023-04-15T08:14:58;1.88;;;1.58;;
70953;SDS011;58618;47.490;8.736;2023-04-15T08:17:45;2.30;;;1.35;;
70953;SDS011;58618;47.490;8.736;2023-04-15T08:20:33;4.60;;;1.65;;
70953;SDS011;58618;47.490;8.736;2023-04-15T08:23:20;3.90;;;1.70;;
70953;SDS011;58618;47.490;8.736;2023-04-15T08:26:09;2.42;;;1.40;;
70953;SDS011;58618;47.490;8.736;2023-04-15T08:28:57;2.88;;;1.70;;
70953;SDS011;58618;47.490;8.736;2023-04-15T08:31:44;4.65;;;1.65;;
70953;SDS011;58618;47.490;8.736;2023-04-15T08:34:32;3.33;;;2.03;;
70953;SDS011;58618;47.490;8.736;2023-04-15T08:37:19;3.70;;;1.47;;
70953;SDS011;58618;47.490;8.736;2023-04-15T08:40:08;3.88;;;1.90;;
70953;SDS011;58618;47.490;8.736;2023-04-15T08:42:58;3.97;;;1.90;;
70953;SDS011;58618;47.490;8.736;2023-04-15T08:45:46;1.63;;;1.23;;
70953;SDS011;58618;47.490;8.736;2023-04-15T08:48:36;2.22;;;1.35;;
70953;SDS011;58618;47.490;8.736;2023-04-15T08:51:25;1.87;;;1.37;;
70953;SDS011;58618;47.490;8.736;2023-04-15T08:54:13;2.13;;;1.70;;
70953;SDS011;58618;47.490;8.736;2023-04-15T08:57:01;3.08;;;1.80;;
70953;SDS011;58618;47.490;8.736;2023-04-15T08:59:50;4.18;;;1.70;;
70953;SDS011;58618;47.490;8.736;2023-04-15T09:02:38;2.00;;;1.52;;
70953;SDS011;58618;47.490;8.736;2023-04-15T09:05:28;2.47;;;1.40;;
70953;SDS011;58618;47.490;8.736;2023-04-15T09:08:18;2.90;;;1.92;;
70953;SDS011;58618;47.490;8.736;2023-04-15T09:11:05;3.15;;;1.80;;
70953;SDS011;58618;47.490;8.736;2023-04-15T09:13:53;2.50;;;1.73;;
70953;SDS011;58618;47.490;8.736;2023-04-15T09:16:57;3.75;;;1.70;;
70953;SDS011;58618;47.490;8.736;2023-04-15T09:19:45;5.70;;;1.60;;
70953;SDS011;58618;47.490;8.736;2023-04-15T09:22:33;3.38;;;1.63;;
70953;SDS011;58618;47.490;8.736;2023-04-15T09:25:24;2.50;;;1.65;;
70953;SDS011;58618;47.490;8.736;2023-04-15T09:28:13;2.90;;;1.40;;
70953;SDS011;58618;47.490;8.736;2023-04-15T09:31:00;2.88;;;1.60;;
70953;SDS011;58618;47.490;8.736;2023-04-15T09:33:54;6.00;;;1.10;;
70953;SDS011;58618;47.490;8.736;2023-04-15T09:36:52;2.33;;;1.73;;
70953;SDS011;58618;47.490;8.736;2023-04-15T09:39:49;2.65;;;1.50;;
70953;SDS011;58618;47.490;8.736;2023-04-15T09:42:41;4.28;;;1.70;;
70953;SDS011;58618;47.490;8.736;2023-04-15T09:45:46;2.92;;;1.75;;
70953;SDS011;58618;47.490;8.736;2023-04-15T09:48:35;2.00;;;1.30;;
70953;SDS011;58618;47.490;8.736;2023-04-15T09:51:33;2.10;;;1.48;;
70953;SDS011;58618;47.490;8.736;2023-04-15T09:54:20;3.47;;;1.80;;
70953;SDS011;58618;47.490;8.736;2023-04-15T09:57:08;2.35;;;1.52;;
70953;SDS011;58618;47.490;8.736;2023-04-15T09:59:57;2.22;;;1.55;;
70953;SDS011;58618;47.490;8.736;2023-04-15T10:02:44;2.33;;;1.33;;
70953;SDS011;58618;47.490;8.736;2023-04-15T10:05:34;2.20;;;1.60;;
70953;SDS011;58618;47.490;8.736;2023-04-15T10:08:26;2.95;;;1.88;;
70953;SDS011;58618;47.490;8.736;2023-04-15T10:11:16;2.55;;;1.60;;
70953;SDS011;58618;47.490;8.736;2023-04-15T10:14:04;1.70;;;1.17;;
70953;SDS011;58618;47.490;8.736;2023-04-15T10:16:53;2.70;;;1.20;;
70953;SDS011;58618;47.490;8.736;2023-04-15T10:19:43;1.67;;;1.10;;
70953;SDS011;58618;47.490;8.736;2023-04-15T10:22:32;2.90;;;1.52;;
70953;SDS011;58618;47.490;8.736;2023-04-15T10:25:20;1.83;;;1.15;;
70953;SDS011;58618;47.490;8.736;2023-04-15T10:28:09;1.90;;;1.10;;
70953;SDS011;58618;47.490;8.736;2023-04-15T10:30:57;1.93;;;1.23;;
70953;SDS011;58618;47.490;8.736;2023-04-15T10:33:45;1.90;;;1.38;;
70953;SDS011;58618;47.490;8.736;2023-04-15T10:36:33;1.33;;;1.00;;
70953;SDS011;58618;47.490;8.736;2023-04-15T10:42:33;2.97;;;1.17;;
70953;SDS011;58618;47.490;8.736;2023-04-15T10:45:21;1.30;;;1.20;;
70953;SDS011;58618;47.490;8.736;2023-04-15T10:48:12;3.25;;;1.10;;
70953;SDS011;58618;47.490;8.736;2023-04-15T10:51:02;2.03;;;1.30;;
70953;SDS011;58618;47.490;8.736;2023-04-15T10:53:49;1.85;;;1.08;;
70953;SDS011;58618;47.490;8.736;2023-04-15T10:56:37;2.17;;;1.33;;
70953;SDS011;58618;47.490;8.736;2023-04-15T10:59:25;1.83;;;1.30;;
70953;SDS011;58618;47.490;8.736;2023-04-15T11:02:15;1.83;;;1.10;;
70953;SDS011;58618;47.490;8.736;2023-04-15T11:05:02;2.53;;;1.27;;
70953;SDS011;58618;47.490;8.736;2023-04-15T11:07:51;2.47;;;1.55;;
70953;SDS011;58618;47.490;8.736;2023-04-15T11:10:49;3.13;;;1.60;;
70953;SDS011;58618;47.490;8.736;2023-04-15T11:13:46;2.70;;;1.30;;
70953;SDS011;58618;47.490;8.736;2023-04-15T11:16:42;2.05;;;1.30;;
70953;SDS011;58618;47.490;8.736;2023-04-15T11:19:36;2.08;;;1.08;;
70953;SDS011;58618;47.490;8.736;2023-04-15T11:22:24;1.33;;;1.10;;
70953;SDS011;58618;47.490;8.736;2023-04-15T11:25:15;1.23;;;0.90;;
70953;SDS011;58618;47.490;8.736;2023-04-15T11:28:08;1.33;;;0.90;;
70953;SDS011;58618;47.490;8.736;2023-04-15T11:30:57;1.90;;;1.00;;
70953;SDS011;58618;47.490;8.736;2023-04-15T11:33:52;1.63;;;1.05;;
70953;SDS011;58618;47.490;8.736;2023-04-15T11:36:41;2.85;;;0.80;;
70953;SDS011;58618;47.490;8.736;2023-04-15T11:39:29;3.50;;;1.10;;
70953;SDS011;58618;47.490;8.736;2023-04-15T11:42:17;1.77;;;1.00;;
70953;SDS011;58618;47.490;8.736;2023-04-15T11:45:07;4.22;;;1.00;;
70953;SDS011;58618;47.490;8.736;2023-04-15T11:48:03;1.45;;;0.80;;
70953;SDS011;58618;47.490;8.736;2023-04-15T11:50:53;1.33;;;1.13;;
70953;SDS011;58618;47.490;8.736;2023-04-15T11:53:42;1.40;;;0.93;;
70953;SDS011;58618;47.490;8.736;2023-04-15T11:56:30;1.93;;;1.00;;
70953;SDS011;58618;47.490;8.736;2023-04-15T11:59:18;2.58;;;1.10;;
70953;SDS011;58618;47.490;8.736;2023-04-15T12:02:10;1.10;;;1.00;;
70953;SDS011;58618;47.490;8.736;2023-04-15T12:05:02;1.27;;;1.02;;
70953;SDS011;58618;47.490;8.736;2023-04-15T12:07:57;1.20;;;0.98;;
70953;SDS011;58618;47.490;8.736;2023-04-15T12:10:45;2.33;;;1.10;;
70953;SDS011;58618;47.490;8.736;2023-04-15T12:13:32;1.52;;;0.80;;
70953;SDS011;58618;47.490;8.736;2023-04-15T12:16:20;1.17;;;0.90;;
70953;SDS011;58618;47.490;8.736;2023-04-15T12:19:09;1.65;;;1.02;;
70953;SDS011;58618;47.490;8.736;2023-04-15T12:21:59;2.38;;;1.10;;
70953;SDS011;58618;47.490;8.736;2023-04-15T12:24:53;1.23;;;0.97;;
70953;SDS011;58618;47.490;8.736;2023-04-15T12:27:49;1.58;;;1.00;;
70953;SDS011;58618;47.490;8.736;2023-04-15T12:30:47;2.17;;;1.35;;
70953;SDS011;58618;47.490;8.736;2023-04-15T12:33:36;1.40;;;1.15;;
70953;SDS011;58618;47.490;8.736;2023-04-15T12:36:24;1.65;;;1.25;;
70953;SDS011;58618;47.490;8.736;2023-04-15T12:39:11;1.87;;;1.23;;
70953;SDS011;58618;47.490;8.736;2023-04-15T12:42:00;2.15;;;1.30;;
70953;SDS011;58618;47.490;8.736;2023-04-15T12:44:48;2.45;;;1.50;;
70953;SDS011;58618;47.490;8.736;2023-04-15T12:47:35;2.85;;;1.50;;
70953;SDS011;58618;47.490;8.736;2023-04-15T12:50:22;3.92;;;1.60;;
70953;SDS011;58618;47.490;8.736;2023-04-15T12:53:10;1.83;;;1.47;;
70953;SDS011;58618;47.490;8.736;2023-04-15T12:55:58;2.35;;;1.50;;
70953;SDS011;58618;47.490;8.736;2023-04-15T12:58:47;2.88;;;1.60;;
70953;SDS011;58618;47.490;8.736;2023-04-15T13:01:34;4.38;;;1.50;;
70953;SDS011;58618;47.490;8.736;2023-04-15T13:04:22;3.38;;;1.73;;
70953;SDS011;58618;47.490;8.736;2023-04-15T13:07:09;1.90;;;1.33;;
70953;SDS011;58618;47.490;8.736;2023-04-15T13:09:58;2.97;;;1.50;;
70953;SDS011;58618;47.490;8.736;2023-04-15T13:12:45;2.83;;;1.90;;
70953;SDS011;58618;47.490;8.736;2023-04-15T13:15:36;3.17;;;1.50;;
70953;SDS011;58618;47.490;8.736;2023-04-15T13:18:23;2.65;;;1.60;;
70953;SDS011;58618;47.490;8.736;2023-04-15T13:21:11;2.43;;;1.60;;
70953;SDS011;58618;47.490;8.736;2023-04-15T13:23:58;2.35;;;1.52;;
70953;SDS011;58618;47.490;8.736;2023-04-15T13:26:46;1.83;;;1.50;;
70953;SDS011;58618;47.490;8.736;2023-04-15T13:29:33;2.38;;;1.50;;
70953;SDS011;58618;47.490;8.736;2023-04-15T13:32:22;2.88;;;1.58;;
70953;SDS011;58618;47.490;8.736;2023-04-15T13:35:09;3.13;;;1.67;;
70953;SDS011;58618;47.490;8.736;2023-04-15T13:37:57;1.92;;;1.40;;
70953;SDS011;58618;47.490;8.736;2023-04-15T13:40:44;1.63;;;1.40;;
70953;SDS011;58618;47.490;8.736;2023-04-15T13:43:31;2.20;;;1.13;;
70953;SDS011;58618;47.490;8.736;2023-04-15T13:46:19;1.95;;;1.48;;
70953;SDS011;58618;47.490;8.736;2023-04-15T13:49:08;1.80;;;1.50;;
70953;SDS011;58618;47.490;8.736;2023-04-15T13:51:55;2.38;;;1.30;;
70953;SDS011;58618;47.490;8.736;2023-04-15T13:54:43;2.10;;;1.40;;
70953;SDS011;58618;47.490;8.736;2023-04-15T13:57:30;2.20;;;1.40;;
70953;SDS011;58618;47.490;8.736;2023-04-15T14:00:17;2.83;;;1.35;;
70953;SDS011;58618;47.490;8.736;2023-04-15T14:03:05;2.80;;;1.30;;
70953;SDS011;58618;47.490;8.736;2023-04-15T14:05:53;2.05;;;1.30;;
70953;SDS011;58618;47.490;8.736;2023-04-15T14:08:42;3.38;;;1.63;;
70953;SDS011;58618;47.490;8.736;2023-04-15T14:11:30;4.45;;;1.98;;
70953;SDS011;58618;47.490;8.736;2023-04-15T14:14:17;2.67;;;1.30;;
70953;SDS011;58618;47.490;8.736;2023-04-15T14:17:04;2.40;;;1.27;;
70953;SDS011;58618;47.490;8.736;2023-04-15T14:19:52;1.67;;;1.10;;
70953;SDS011;58618;47.490;8.736;2023-04-15T14:22:40;5.70;;;1.30;;
70953;SDS011;58618;47.490;8.736;2023-04-15T14:25:28;2.53;;;1.15;;
70953;SDS011;58618;47.490;8.736;2023-04-15T14:28:15;1.83;;;0.98;;
70953;SDS011;58618;47.490;8.736;2023-04-15T14:31:02;1.27;;;1.10;;
70953;SDS011;58618;47.490;8.736;2023-04-15T14:33:50;2.97;;;1.13;;
70953;SDS011;58618;47.490;8.736;2023-04-15T14:36:37;1.55;;;1.00;;
70953;SDS011;58618;47.490;8.736;2023-04-15T14:39:25;2.63;;;1.17;;
70953;SDS011;58618;47.490;8.736;2023-04-15T14:42:13;3.17;;;1.10;;
70953;SDS011;58618;47.490;8.736;2023-04-15T14:45:00;1.50;;;1.20;;
70953;SDS011;58618;47.490;8.736;2023-04-15T14:47:48;3.83;;;1.20;;
70953;SDS011;58618;47.490;8.736;2023-04-15T14:50:35;1.27;;;1.00;;
70953;SDS011;58618;47.490;8.736;2023-04-15T14:53:22;1.95;;;1.00;;
70953;SDS011;58618;47.490;8.736;2023-04-15T14:56:11;2.50;;;1.30;;
70953;SDS011;58618;47.490;8.736;2023-04-15T14:58:59;1.98;;;1.15;;
70953;SDS011;58618;47.490;8.736;2023-04-15T15:01:46;1.67;;;1.10;;
70953;SDS011;58618;47.490;8.736;2023-04-15T15:04:34;2.20;;;1.02;;
70953;SDS011;58618;47.490;8.736;2023-04-15T15:07:21;2.08;;;1.40;;
70953;SDS011;58618;47.490;8.736;2023-04-15T15:10:09;1.48;;;1.00;;
70953;SDS011;58618;47.490;8.736;2023-04-15T15:12:58;3.45;;;1.33;;
70953;SDS011;58618;47.490;8.736;2023-04-15T15:15:45;1.93;;;1.10;;
70953;SDS011;58618;47.490;8.736;2023-04-15T15:18:34;2.67;;;1.10;;
70953;SDS011;58618;47.490;8.736;2023-04-15T15:21:22;1.83;;;0.90;;
70953;SDS011;58618;47.490;8.736;2023-04-15T15:24:09;1.55;;;1.30;;
70953;SDS011;58618;47.490;8.736;2023-04-15T15:26:57;2.47;;;1.10;;
70953;SDS011;58618;47.490;8.736;2023-04-15T15:29:45;1.00;;;0.90;;
70953;SDS011;58618;47.490;8.736;2023-04-15T15:32:33;1.10;;;0.82;;
70953;SDS011;58618;47.490;8.736;2023-04-15T15:35:21;0.98;;;0.80;;
70953;SDS011;58618;47.490;8.736;2023-04-15T15:38:10;1.08;;;0.90;;
70953;SDS011;58618;47.490;8.736;2023-04-15T15:40:58;1.67;;;0.98;;
70953;SDS011;58618;47.490;8.736;2023-04-15T15:43:45;1.00;;;0.80;;
70953;SDS011;58618;47.490;8.736;2023-04-15T15:46:34;1.10;;;0.90;;
70953;SDS011;58618;47.490;8.736;2023-04-15T15:49:21;4.40;;;1.05;;
70953;SDS011;58618;47.490;8.736;2023-04-15T15:52:10;0.95;;;0.80;;
70953;SDS011;58618;47.490;8.736;2023-04-15T15:54:57;1.90;;;0.95;;
70953;SDS011;58618;47.490;8.736;2023-04-15T15:57:45;1.47;;;0.90;;
70953;SDS011;58618;47.490;8.736;2023-04-15T16:00:32;1.52;;;0.70;;
70953;SDS011;58618;47.490;8.736;2023-04-15T16:03:22;1.35;;;0.95;;
70953;SDS011;58618;47.490;8.736;2023-04-15T16:06:10;2.25;;;0.95;;
70953;SDS011;58618;47.490;8.736;2023-04-15T16:08:57;1.23;;;0.80;;
70953;SDS011;58618;47.490;8.736;2023-04-15T16:11:45;1.17;;;0.73;;
70953;SDS011;58618;47.490;8.736;2023-04-15T16:14:32;1.10;;;0.90;;
70953;SDS011;58618;47.490;8.736;2023-04-15T16:17:19;1.15;;;0.90;;
70953;SDS011;58618;47.490;8.736;2023-04-15T16:20:09;1.30;;;0.82;;
70953;SDS011;58618;47.490;8.736;2023-04-15T16:22:56;0.93;;;0.70;;
70953;SDS011;58618;47.490;8.736;2023-04-15T16:25:44;1.10;;;0.83;;
70953;SDS011;58618;47.490;8.736;2023-04-15T16:28:33;1.02;;;0.70;;
70953;SDS011;58618;47.490;8.736;2023-04-15T16:31:21;1.40;;;1.00;;
70953;SDS011;58618;47.490;8.736;2023-04-15T16:34:08;1.23;;;0.90;;
70953;SDS011;58618;47.490;8.736;2023-04-15T16:36:57;1.00;;;0.80;;
70953;SDS011;58618;47.490;8.736;2023-04-15T16:39:45;0.90;;;0.77;;
70953;SDS011;58618;47.490;8.736;2023-04-15T16:42:32;0.80;;;0.68;;
70953;SDS011;58618;47.490;8.736;2023-04-15T16:45:21;0.65;;;0.63;;
70953;SDS011;58618;47.490;8.736;2023-04-15T16:48:08;1.15;;;0.90;;
70953;SDS011;58618;47.490;8.736;2023-04-15T16:50:56;0.90;;;0.73;;
70953;SDS011;58618;47.490;8.736;2023-04-15T16:53:45;2.20;;;0.93;;
70953;SDS011;58618;47.490;8.736;2023-04-15T16:56:32;3.78;;;0.90;;
70953;SDS011;58618;47.490;8.736;2023-04-15T16:59:21;1.00;;;0.68;;
70953;SDS011;58618;47.490;8.736;2023-04-15T17:02:09;1.08;;;0.80;;